Terminal Aerodrome Forecast
Issued by NWS

Home | Current Version | Previous Version | Text Only | Print | Product List | Glossary On
Versions: 1 2 3 4 5 6 7 8 9 10 11 12 13 14 15 16 17 18 19
000
FTUS41 KBTV 161400 AAA
TAFRUT
TAF AMD
KRUT 161411Z 1614/1712 23005KT P6SM SCT025 OVC050
      TEMPO 1614/1617 BKN025
     FM161700 29006KT P6SM OVC060
     FM170100 14004KT P6SM FEW250
      AMD LTD TO CLD VIS AND WIND=

USA.gov is the U.S. government's official web portal to all federal, state and local government web resources and services.